createdAt,value
2023-03-01T00:02:19.667Z,101738.72
2023-03-01T00:07:20.869Z,101737.59
2023-03-01T00:12:21.994Z,101734.53
2023-03-01T00:17:23.197Z,101736.94
2023-03-01T00:22:24.366Z,101732.72
2023-03-01T00:27:25.501Z,101726.13
2023-03-01T00:32:26.719Z,101724.38
2023-03-01T00:37:27.859Z,101727.53
2023-03-01T00:42:28.992Z,101728.66
2023-03-01T00:47:30.221Z,101721.44
2023-03-01T00:52:31.422Z,101718.06
2023-03-01T00:57:33.115Z,101713.44
2023-03-01T01:02:34.302Z,101710.06
2023-03-01T01:07:35.492Z,101705.25
2023-03-01T01:12:36.635Z,101700.56
2023-03-01T01:17:37.812Z,101704.25
2023-03-01T01:22:39.038Z,101693.00
2023-03-01T01:27:40.275Z,101688.56
2023-03-01T01:32:41.533Z,101679.03
2023-03-01T01:37:42.708Z,101671.50
2023-03-01T01:42:43.946Z,101663.22
2023-03-01T01:47:49.545Z,101662.25
2023-03-01T01:52:50.757Z,101652.72
2023-03-01T01:57:51.893Z,101639.22
2023-03-01T02:02:53.225Z,101639.56
2023-03-01T02:07:54.508Z,101627.69
2023-03-01T02:12:56.996Z,101634.81
2023-03-01T02:17:58.397Z,101625.22
2023-03-01T02:22:59.628Z,101634.66
2023-03-01T02:28:00.849Z,101631.91
2023-03-01T02:33:05.404Z,101634.66
2023-03-01T02:38:06.588Z,101628.50
2023-03-01T02:43:07.768Z,101633.56
2023-03-01T02:48:08.993Z,101626.53
2023-03-01T02:53:10.140Z,101619.97
2023-03-01T02:58:11.340Z,101610.63
2023-03-01T03:03:12.524Z,101611.63
2023-03-01T03:08:13.979Z,101604.44
2023-03-01T03:13:15.186Z,101601.25
2023-03-01T03:18:16.380Z,101587.34
2023-03-01T03:23:17.594Z,101594.41
2023-03-01T03:28:18.759Z,101579.75
2023-03-01T03:33:19.899Z,101581.59
2023-03-01T03:38:23.166Z,101589.91
2023-03-01T03:43:24.452Z,101591.38
2023-03-01T03:48:25.662Z,101588.97
2023-03-01T03:53:26.815Z,101584.78
2023-03-01T03:58:28.096Z,101572.28
2023-03-01T04:03:29.300Z,101566.91
2023-03-01T04:08:30.526Z,101565.34
2023-03-01T04:13:31.720Z,101556.81
2023-03-01T04:18:32.889Z,101555.47
2023-03-01T04:23:34.253Z,101554.84
2023-03-01T04:28:35.444Z,101548.75
2023-03-01T04:33:36.581Z,101547.38
2023-03-01T04:38:38.118Z,101547.72
2023-03-01T04:43:39.285Z,101543.69
2023-03-01T04:48:40.474Z,101542.22
2023-03-01T04:53:41.660Z,101543.44
2023-03-01T04:58:42.791Z,101538.28
2023-03-01T05:03:44.057Z,101546.38
2023-03-01T05:08:45.256Z,101534.72
2023-03-01T05:13:46.467Z,101539.44
2023-03-01T05:18:47.632Z,101532.63
2023-03-01T05:23:48.828Z,101544.19
2023-03-01T05:28:50.188Z,101542.50
2023-03-01T05:33:51.314Z,101536.03
2023-03-01T05:38:52.465Z,101532.22
2023-03-01T05:43:53.733Z,101532.03
2023-03-01T05:48:54.945Z,101537.63
2023-03-01T05:53:56.150Z,101537.63
2023-03-01T05:58:57.306Z,101532.22
2023-03-01T06:03:58.545Z,101519.69
2023-03-01T06:08:59.760Z,101522.66
2023-03-01T06:14:00.936Z,101528.00
2023-03-01T06:19:02.114Z,101522.84
2023-03-01T06:24:03.263Z,101527.31
2023-03-01T06:29:04.436Z,101526.25
2023-03-01T06:34:05.622Z,101528.25
2023-03-01T06:39:06.805Z,101524.63
2023-03-01T06:44:07.959Z,101529.44
2023-03-01T06:49:10.394Z,101520.09
2023-03-01T06:54:11.574Z,101518.16
2023-03-01T06:59:12.765Z,101516.53
2023-03-01T07:04:13.918Z,101515.44
2023-03-01T07:09:15.122Z,101519.13
2023-03-01T07:14:16.341Z,101520.25
2023-03-01T07:19:17.542Z,101518.16
2023-03-01T07:24:18.691Z,101509.50
2023-03-01T07:29:19.849Z,101512.13
2023-03-01T07:34:21.068Z,101519.09
2023-03-01T07:39:23.916Z,101515.78
2023-03-01T07:44:25.104Z,101515.88
2023-03-01T07:49:27.380Z,101521.41
2023-03-01T07:54:28.600Z,101514.38
2023-03-01T07:59:30.599Z,101514.84
2023-03-01T08:04:31.876Z,101509.78
2023-03-01T08:09:33.044Z,101509.91
2023-03-01T08:14:34.291Z,101506.78
2023-03-01T08:19:35.670Z,101516.38
2023-03-01T08:24:36.860Z,101506.84
2023-03-01T08:29:37.986Z,101512.84
2023-03-01T08:34:40.465Z,101517.66
2023-03-01T08:39:42.170Z,101514.91
2023-03-01T08:44:45.458Z,101510.16
2023-03-01T08:49:47.172Z,101516.72
2023-03-01T08:54:48.339Z,101508.13
2023-03-01T08:59:49.613Z,101517.63
2023-03-01T09:04:51.012Z,101504.72
2023-03-01T09:09:54.315Z,101500.78
2023-03-01T09:14:55.523Z,101507.41
2023-03-01T09:19:56.695Z,101511.44
2023-03-01T09:25:00.039Z,101497.72
2023-03-01T09:30:01.275Z,101506.63
2023-03-01T09:35:04.596Z,101495.50
2023-03-01T09:40:06.312Z,101480.00
2023-03-01T09:45:07.538Z,101476.06
2023-03-01T09:50:09.718Z,101476.91
2023-03-01T09:55:10.878Z,101470.81
2023-03-01T10:00:12.127Z,101464.94
2023-03-01T10:05:13.464Z,101477.91
2023-03-01T10:10:14.710Z,101469.44
2023-03-01T10:15:15.895Z,101464.22
2023-03-01T10:20:17.102Z,101463.16
2023-03-01T10:25:18.294Z,101454.38
2023-03-01T10:30:20.793Z,101440.75
2023-03-01T10:35:22.084Z,101436.44
2023-03-01T10:40:23.232Z,101430.28
2023-03-01T10:45:25.891Z,101419.97
2023-03-01T10:50:28.110Z,101414.72
2023-03-01T10:55:29.287Z,101409.91
2023-03-01T11:00:30.512Z,101392.41
2023-03-01T11:05:34.432Z,101394.94
2023-03-01T11:10:35.638Z,101386.66
2023-03-01T11:15:36.836Z,101364.97
2023-03-01T11:20:38.000Z,101356.59
2023-03-01T11:25:39.197Z,101350.19
2023-03-01T11:30:40.391Z,101348.59
2023-03-01T11:35:43.115Z,101342.41
2023-03-01T11:40:44.408Z,101332.50
2023-03-01T11:45:45.611Z,101330.41
2023-03-01T11:50:46.754Z,101321.19
2023-03-01T11:55:47.891Z,101317.78
2023-03-01T12:00:49.046Z,101298.75
2023-03-01T12:05:50.211Z,101284.75
2023-03-01T12:10:51.485Z,101290.88
2023-03-01T12:15:52.626Z,101285.44
2023-03-01T12:20:53.956Z,101280.66
2023-03-01T12:25:55.725Z,101267.13
2023-03-01T12:30:56.950Z,101251.69
2023-03-01T12:35:58.191Z,101249.34
2023-03-01T12:40:59.365Z,101249.97
2023-03-01T12:46:00.640Z,101241.44
2023-03-01T12:51:01.804Z,101235.25
2023-03-01T12:56:03.006Z,101227.16
2023-03-01T13:01:04.200Z,101224.03
2023-03-01T13:06:05.417Z,101217.69
2023-03-01T13:11:06.564Z,101214.31
2023-03-01T13:16:07.794Z,101204.22
2023-03-01T13:21:10.071Z,101196.91
2023-03-01T13:26:14.483Z,101201.50
2023-03-01T13:31:15.702Z,101206.59
2023-03-01T13:36:16.920Z,101196.44
2023-03-01T13:41:18.144Z,101187.75
2023-03-01T13:46:19.481Z,101191.63
2023-03-01T13:51:20.789Z,101178.16
2023-03-01T13:56:21.982Z,101172.72
2023-03-01T14:01:23.431Z,101164.81
2023-03-01T14:06:24.717Z,101164.47
2023-03-01T14:11:26.379Z,101162.19
2023-03-01T14:16:27.602Z,101167.03
2023-03-01T14:21:28.903Z,101163.22
2023-03-01T14:26:30.172Z,101158.34
2023-03-01T14:31:33.021Z,101155.25
2023-03-01T14:36:37.294Z,101137.84
2023-03-01T14:41:38.490Z,101134.66
2023-03-01T14:46:39.757Z,101128.34
2023-03-01T14:51:40.965Z,101120.53
2023-03-01T14:56:42.118Z,101121.53
2023-03-01T15:01:43.419Z,101116.94
2023-03-01T15:06:44.746Z,101111.97
2023-03-01T15:11:45.944Z,101111.66
2023-03-01T15:16:47.104Z,101104.94
2023-03-01T15:21:48.359Z,101099.19
2023-03-01T15:26:49.966Z,101102.09
2023-03-01T15:31:51.126Z,101095.00
2023-03-01T15:36:52.321Z,101086.06
2023-03-01T15:41:53.449Z,101087.88
2023-03-01T15:46:54.783Z,101073.41
2023-03-01T15:51:56.029Z,101075.38
2023-03-01T15:56:57.232Z,101075.09
2023-03-01T16:01:58.432Z,101069.72
2023-03-01T16:06:59.957Z,101073.34
2023-03-01T16:12:01.933Z,101058.53
2023-03-01T16:17:03.111Z,101059.00
2023-03-01T16:22:04.386Z,101067.56
2023-03-01T16:27:05.922Z,101062.53
2023-03-01T16:32:07.275Z,101060.22
2023-03-01T16:37:08.595Z,101077.06
2023-03-01T16:42:09.817Z,101083.41
2023-03-01T16:47:11.041Z,101078.22
2023-03-01T16:52:12.241Z,101083.50
2023-03-01T16:57:13.452Z,101094.72
2023-03-01T17:02:15.768Z,101095.06
2023-03-01T17:07:16.942Z,101089.03
2023-03-01T17:12:18.160Z,101094.47
2023-03-01T17:17:19.366Z,101102.03
2023-03-01T17:22:20.519Z,101096.78
2023-03-01T17:27:22.972Z,101100.47
2023-03-01T17:32:24.720Z,101095.31
2023-03-01T17:37:25.967Z,101112.75
2023-03-01T17:42:27.156Z,101112.75
2023-03-01T17:47:28.327Z,101121.06
2023-03-01T17:52:29.505Z,101117.97
2023-03-01T17:57:30.753Z,101117.44
2023-03-01T18:02:32.035Z,101112.91
2023-03-01T18:07:33.265Z,101112.03
2023-03-01T18:12:34.434Z,101117.66
2023-03-01T18:17:35.638Z,101111.91
2023-03-01T18:22:38.538Z,101113.97
2023-03-01T18:27:39.778Z,101113.84
2023-03-01T18:32:41.036Z,101109.19
2023-03-01T18:37:42.170Z,101103.34
2023-03-01T18:42:43.449Z,101097.91
2023-03-01T18:47:44.615Z,101100.16
2023-03-01T18:52:45.870Z,101089.41
2023-03-01T18:57:47.040Z,101078.00
2023-03-01T19:02:48.337Z,101083.84
2023-03-01T19:07:49.601Z,101097.13
2023-03-01T19:12:50.800Z,101103.38
2023-03-01T19:17:54.253Z,101090.44
2023-03-01T19:22:55.722Z,101096.50
2023-03-01T19:27:56.922Z,101101.44
2023-03-01T19:32:58.125Z,101085.19
2023-03-01T19:37:59.272Z,101088.88
2023-03-01T19:43:00.569Z,101089.88
2023-03-01T19:48:01.798Z,101082.75
2023-03-01T19:53:03.017Z,101079.81
2023-03-01T19:58:04.279Z,101080.31
2023-03-01T20:03:05.551Z,101075.56
2023-03-01T20:08:06.730Z,101072.84
2023-03-01T20:13:07.853Z,101067.66
2023-03-01T20:18:09.851Z,101072.41
2023-03-01T20:23:11.075Z,101069.75
2023-03-01T20:28:12.247Z,101073.25
2023-03-01T20:33:13.384Z,101065.06
2023-03-01T20:38:14.840Z,101057.50
2023-03-01T20:43:16.097Z,101054.28
2023-03-01T20:48:17.288Z,101058.97
2023-03-01T20:53:18.473Z,101055.53
2023-03-01T20:58:19.651Z,101069.19
2023-03-01T21:03:20.833Z,101076.44
2023-03-01T21:08:22.056Z,101084.13
2023-03-01T21:13:23.264Z,101086.03
2023-03-01T21:18:29.740Z,101089.81
2023-03-01T21:23:30.960Z,101087.03
2023-03-01T21:28:35.021Z,101099.06
2023-03-01T21:33:36.183Z,101091.25
2023-03-01T21:38:37.424Z,101088.50
2023-03-01T21:43:38.599Z,101085.31
2023-03-01T21:48:40.070Z,101095.34
2023-03-01T21:53:42.562Z,101084.66
2023-03-01T21:58:43.761Z,101090.47
2023-03-01T22:03:48.146Z,101095.50
2023-03-01T22:08:49.341Z,101084.97
2023-03-01T22:13:52.097Z,101088.38
2023-03-01T22:18:53.358Z,101079.25
2023-03-01T22:23:54.502Z,101077.69
2023-03-01T22:28:55.690Z,101080.94
2023-03-01T22:33:56.964Z,101073.31
2023-03-01T22:39:02.030Z,101076.16
2023-03-01T22:44:03.217Z,101071.38
2023-03-01T22:49:05.311Z,101069.56
2023-03-01T22:54:06.510Z,101069.00
2023-03-01T22:59:08.663Z,101079.53
2023-03-01T23:04:09.903Z,101070.22
2023-03-01T23:09:13.882Z,101076.03
2023-03-01T23:14:16.160Z,101070.25
2023-03-01T23:19:17.452Z,101076.44
2023-03-01T23:24:18.708Z,101072.25
2023-03-01T23:29:19.940Z,101074.84
2023-03-01T23:34:21.115Z,101071.47
2023-03-01T23:39:22.302Z,101066.50
2023-03-01T23:44:23.563Z,101067.75
2023-03-01T23:49:24.864Z,101069.50
2023-03-01T23:54:26.121Z,101067.94
2023-03-01T23:59:27.317Z,101077.69
